sensor_id;sensor_type;location;lat;lon;timestamp;P1;durP1;ratioP1;P2;durP2;ratioP2
40787;SDS011;26497;52.494;7.546;2023-08-08T00:02:11;68.50;;;64.55;;
40787;SDS011;26497;52.494;7.546;2023-08-08T00:04:38;67.78;;;63.92;;
40787;SDS011;26497;52.494;7.546;2023-08-08T00:07:05;69.32;;;64.80;;
40787;SDS011;26497;52.494;7.546;2023-08-08T00:09:32;67.03;;;62.42;;
40787;SDS011;26497;52.494;7.546;2023-08-08T00:12:00;68.40;;;64.45;;
40787;SDS011;26497;52.494;7.546;2023-08-08T00:14:28;70.65;;;66.03;;
40787;SDS011;26497;52.494;7.546;2023-08-08T00:16:55;67.20;;;63.22;;
40787;SDS011;26497;52.494;7.546;2023-08-08T00:19:22;65.60;;;61.80;;
40787;SDS011;26497;52.494;7.546;2023-08-08T00:21:49;66.68;;;61.90;;
40787;SDS011;26497;52.494;7.546;2023-08-08T00:24:16;64.38;;;60.67;;
40787;SDS011;26497;52.494;7.546;2023-08-08T00:26:43;64.72;;;60.58;;
40787;SDS011;26497;52.494;7.546;2023-08-08T00:29:10;68.72;;;63.33;;
40787;SDS011;26497;52.494;7.546;2023-08-08T00:31:38;64.57;;;60.35;;
40787;SDS011;26497;52.494;7.546;2023-08-08T00:34:05;62.20;;;58.25;;
40787;SDS011;26497;52.494;7.546;2023-08-08T00:36:32;62.58;;;58.72;;
40787;SDS011;26497;52.494;7.546;2023-08-08T00:38:59;60.75;;;57.00;;
40787;SDS011;26497;52.494;7.546;2023-08-08T00:41:26;58.17;;;54.88;;
40787;SDS011;26497;52.494;7.546;2023-08-08T00:43:53;59.72;;;55.85;;
40787;SDS011;26497;52.494;7.546;2023-08-08T00:46:21;63.33;;;58.90;;
40787;SDS011;26497;52.494;7.546;2023-08-08T00:48:50;61.80;;;57.83;;
40787;SDS011;26497;52.494;7.546;2023-08-08T00:51:18;63.67;;;59.53;;
40787;SDS011;26497;52.494;7.546;2023-08-08T00:53:45;62.67;;;58.83;;
40787;SDS011;26497;52.494;7.546;2023-08-08T00:56:13;62.20;;;58.28;;
40787;SDS011;26497;52.494;7.546;2023-08-08T00:58:42;61.70;;;57.75;;
40787;SDS011;26497;52.494;7.546;2023-08-08T01:01:10;58.28;;;54.10;;
40787;SDS011;26497;52.494;7.546;2023-08-08T01:03:37;57.03;;;53.53;;
40787;SDS011;26497;52.494;7.546;2023-08-08T01:06:08;61.13;;;56.65;;
40787;SDS011;26497;52.494;7.546;2023-08-08T01:08:46;59.25;;;55.47;;
40787;SDS011;26497;52.494;7.546;2023-08-08T01:11:21;58.88;;;54.95;;
40787;SDS011;26497;52.494;7.546;2023-08-08T01:13:49;57.22;;;53.63;;
40787;SDS011;26497;52.494;7.546;2023-08-08T01:16:19;60.30;;;56.15;;
40787;SDS011;26497;52.494;7.546;2023-08-08T01:18:47;58.33;;;54.22;;
40787;SDS011;26497;52.494;7.546;2023-08-08T01:21:16;56.53;;;52.78;;
40787;SDS011;26497;52.494;7.546;2023-08-08T01:23:45;56.22;;;52.65;;
40787;SDS011;26497;52.494;7.546;2023-08-08T01:26:19;56.72;;;53.15;;
40787;SDS011;26497;52.494;7.546;2023-08-08T01:28:47;55.30;;;51.90;;
40787;SDS011;26497;52.494;7.546;2023-08-08T01:31:18;57.03;;;53.13;;
40787;SDS011;26497;52.494;7.546;2023-08-08T01:33:45;59.08;;;54.67;;
40787;SDS011;26497;52.494;7.546;2023-08-08T01:36:13;63.10;;;57.85;;
40787;SDS011;26497;52.494;7.546;2023-08-08T01:38:46;58.90;;;55.05;;
40787;SDS011;26497;52.494;7.546;2023-08-08T01:41:17;60.67;;;56.67;;
40787;SDS011;26497;52.494;7.546;2023-08-08T01:43:47;59.50;;;55.38;;
40787;SDS011;26497;52.494;7.546;2023-08-08T01:46:15;59.15;;;55.38;;
40787;SDS011;26497;52.494;7.546;2023-08-08T01:48:44;58.00;;;54.28;;
40787;SDS011;26497;52.494;7.546;2023-08-08T01:51:12;59.80;;;55.40;;
40787;SDS011;26497;52.494;7.546;2023-08-08T01:53:39;59.10;;;55.22;;
40787;SDS011;26497;52.494;7.546;2023-08-08T01:56:06;60.40;;;56.20;;
40787;SDS011;26497;52.494;7.546;2023-08-08T01:58:34;61.83;;;56.45;;
40787;SDS011;26497;52.494;7.546;2023-08-08T02:01:01;58.70;;;54.78;;
40787;SDS011;26497;52.494;7.546;2023-08-08T02:03:28;61.08;;;57.10;;
40787;SDS011;26497;52.494;7.546;2023-08-08T02:05:55;60.47;;;56.63;;
40787;SDS011;26497;52.494;7.546;2023-08-08T02:08:22;62.15;;;57.88;;
40787;SDS011;26497;52.494;7.546;2023-08-08T02:10:49;62.33;;;58.08;;
40787;SDS011;26497;52.494;7.546;2023-08-08T02:13:16;63.30;;;59.13;;
40787;SDS011;26497;52.494;7.546;2023-08-08T02:15:45;64.72;;;58.60;;
40787;SDS011;26497;52.494;7.546;2023-08-08T02:18:12;63.90;;;58.85;;
40787;SDS011;26497;52.494;7.546;2023-08-08T02:20:39;61.90;;;57.90;;
40787;SDS011;26497;52.494;7.546;2023-08-08T02:23:06;62.15;;;57.40;;
40787;SDS011;26497;52.494;7.546;2023-08-08T02:25:33;60.20;;;55.85;;
40787;SDS011;26497;52.494;7.546;2023-08-08T02:28:00;62.72;;;58.20;;
40787;SDS011;26497;52.494;7.546;2023-08-08T02:30:27;66.50;;;61.70;;
40787;SDS011;26497;52.494;7.546;2023-08-08T02:32:55;61.05;;;56.80;;
40787;SDS011;26497;52.494;7.546;2023-08-08T02:35:22;70.95;;;64.05;;
40787;SDS011;26497;52.494;7.546;2023-08-08T02:37:49;63.40;;;58.97;;
40787;SDS011;26497;52.494;7.546;2023-08-08T02:40:16;65.25;;;60.17;;
40787;SDS011;26497;52.494;7.546;2023-08-08T02:42:43;64.50;;;59.75;;
40787;SDS011;26497;52.494;7.546;2023-08-08T02:45:10;66.50;;;61.35;;
40787;SDS011;26497;52.494;7.546;2023-08-08T02:47:37;65.85;;;61.38;;
40787;SDS011;26497;52.494;7.546;2023-08-08T02:50:06;66.82;;;61.92;;
40787;SDS011;26497;52.494;7.546;2023-08-08T02:52:34;64.53;;;60.38;;
40787;SDS011;26497;52.494;7.546;2023-08-08T02:55:01;69.18;;;64.30;;
40787;SDS011;26497;52.494;7.546;2023-08-08T02:57:28;67.40;;;61.45;;
40787;SDS011;26497;52.494;7.546;2023-08-08T02:59:55;66.80;;;62.45;;
40787;SDS011;26497;52.494;7.546;2023-08-08T03:02:22;65.28;;;60.85;;
40787;SDS011;26497;52.494;7.546;2023-08-08T03:04:49;64.55;;;59.63;;
40787;SDS011;26497;52.494;7.546;2023-08-08T03:07:17;65.45;;;60.45;;
40787;SDS011;26497;52.494;7.546;2023-08-08T03:09:44;64.85;;;60.05;;
40787;SDS011;26497;52.494;7.546;2023-08-08T03:12:11;66.75;;;61.70;;
40787;SDS011;26497;52.494;7.546;2023-08-08T03:14:38;65.72;;;61.08;;
40787;SDS011;26497;52.494;7.546;2023-08-08T03:17:05;69.82;;;63.78;;
40787;SDS011;26497;52.494;7.546;2023-08-08T03:19:32;68.38;;;63.45;;
40787;SDS011;26497;52.494;7.546;2023-08-08T03:21:59;71.80;;;65.45;;
40787;SDS011;26497;52.494;7.546;2023-08-08T03:24:29;72.05;;;66.30;;
40787;SDS011;26497;52.494;7.546;2023-08-08T03:26:56;70.88;;;65.47;;
40787;SDS011;26497;52.494;7.546;2023-08-08T03:29:23;71.68;;;66.63;;
40787;SDS011;26497;52.494;7.546;2023-08-08T03:31:50;71.68;;;65.90;;
40787;SDS011;26497;52.494;7.546;2023-08-08T03:34:17;73.57;;;67.63;;
40787;SDS011;26497;52.494;7.546;2023-08-08T03:36:44;72.78;;;67.25;;
40787;SDS011;26497;52.494;7.546;2023-08-08T03:39:11;73.13;;;68.38;;
40787;SDS011;26497;52.494;7.546;2023-08-08T03:41:39;75.22;;;69.35;;
40787;SDS011;26497;52.494;7.546;2023-08-08T03:44:06;75.22;;;69.70;;
40787;SDS011;26497;52.494;7.546;2023-08-08T03:46:33;75.57;;;69.80;;
40787;SDS011;26497;52.494;7.546;2023-08-08T03:49:00;75.40;;;70.18;;
40787;SDS011;26497;52.494;7.546;2023-08-08T03:51:27;76.43;;;70.18;;
40787;SDS011;26497;52.494;7.546;2023-08-08T03:53:54;77.05;;;70.90;;
40787;SDS011;26497;52.494;7.546;2023-08-08T03:56:21;76.35;;;71.13;;
40787;SDS011;26497;52.494;7.546;2023-08-08T03:58:49;76.20;;;70.53;;
40787;SDS011;26497;52.494;7.546;2023-08-08T04:01:16;78.57;;;71.00;;
40787;SDS011;26497;52.494;7.546;2023-08-08T04:03:43;75.55;;;69.88;;
40787;SDS011;26497;52.494;7.546;2023-08-08T04:06:10;80.07;;;73.72;;
40787;SDS011;26497;52.494;7.546;2023-08-08T04:08:37;78.93;;;73.32;;
40787;SDS011;26497;52.494;7.546;2023-08-08T04:11:04;77.07;;;71.63;;
40787;SDS011;26497;52.494;7.546;2023-08-08T04:13:31;77.13;;;71.43;;
40787;SDS011;26497;52.494;7.546;2023-08-08T04:16:00;74.55;;;68.20;;
40787;SDS011;26497;52.494;7.546;2023-08-08T04:18:27;73.05;;;67.90;;
40787;SDS011;26497;52.494;7.546;2023-08-08T04:20:54;73.70;;;67.15;;
40787;SDS011;26497;52.494;7.546;2023-08-08T04:23:21;72.30;;;66.80;;
40787;SDS011;26497;52.494;7.546;2023-08-08T04:25:50;68.93;;;62.83;;
40787;SDS011;26497;52.494;7.546;2023-08-08T04:28:17;75.47;;;68.03;;
40787;SDS011;26497;52.494;7.546;2023-08-08T04:30:44;71.65;;;66.05;;
40787;SDS011;26497;52.494;7.546;2023-08-08T04:33:13;76.57;;;70.95;;
40787;SDS011;26497;52.494;7.546;2023-08-08T04:35:40;80.13;;;72.40;;
40787;SDS011;26497;52.494;7.546;2023-08-08T04:38:07;81.32;;;74.93;;
40787;SDS011;26497;52.494;7.546;2023-08-08T04:40:34;77.55;;;71.18;;
40787;SDS011;26497;52.494;7.546;2023-08-08T04:43:01;76.70;;;70.05;;
40787;SDS011;26497;52.494;7.546;2023-08-08T04:45:28;72.47;;;66.20;;
40787;SDS011;26497;52.494;7.546;2023-08-08T04:47:55;70.63;;;63.70;;
40787;SDS011;26497;52.494;7.546;2023-08-08T04:50:24;70.97;;;65.38;;
40787;SDS011;26497;52.494;7.546;2023-08-08T04:52:51;71.10;;;64.78;;
40787;SDS011;26497;52.494;7.546;2023-08-08T04:55:18;68.10;;;62.70;;
40787;SDS011;26497;52.494;7.546;2023-08-08T04:57:45;72.25;;;66.13;;
40787;SDS011;26497;52.494;7.546;2023-08-08T05:00:13;70.90;;;65.32;;
40787;SDS011;26497;52.494;7.546;2023-08-08T05:02:41;73.68;;;67.32;;
40787;SDS011;26497;52.494;7.546;2023-08-08T05:05:08;70.75;;;65.32;;
40787;SDS011;26497;52.494;7.546;2023-08-08T05:07:36;79.45;;;72.63;;
40787;SDS011;26497;52.494;7.546;2023-08-08T05:10:04;78.18;;;71.70;;
40787;SDS011;26497;52.494;7.546;2023-08-08T05:12:32;77.00;;;70.65;;
40787;SDS011;26497;52.494;7.546;2023-08-08T05:14:59;75.35;;;69.72;;
40787;SDS011;26497;52.494;7.546;2023-08-08T05:17:26;65.57;;;60.33;;
40787;SDS011;26497;52.494;7.546;2023-08-08T05:19:53;74.63;;;69.45;;
40787;SDS011;26497;52.494;7.546;2023-08-08T05:22:20;90.57;;;84.88;;
40787;SDS011;26497;52.494;7.546;2023-08-08T05:24:48;82.82;;;77.70;;
40787;SDS011;26497;52.494;7.546;2023-08-08T05:27:15;76.32;;;71.70;;
40787;SDS011;26497;52.494;7.546;2023-08-08T05:29:42;78.82;;;73.88;;
40787;SDS011;26497;52.494;7.546;2023-08-08T05:32:09;100.65;;;94.25;;
40787;SDS011;26497;52.494;7.546;2023-08-08T05:34:36;113.00;;;105.97;;
40787;SDS011;26497;52.494;7.546;2023-08-08T05:37:03;90.38;;;84.38;;
40787;SDS011;26497;52.494;7.546;2023-08-08T05:39:30;71.28;;;66.90;;
40787;SDS011;26497;52.494;7.546;2023-08-08T05:41:59;72.57;;;67.63;;
40787;SDS011;26497;52.494;7.546;2023-08-08T05:44:26;78.18;;;72.95;;
40787;SDS011;26497;52.494;7.546;2023-08-08T05:46:53;78.38;;;72.88;;
40787;SDS011;26497;52.494;7.546;2023-08-08T05:49:20;79.85;;;73.38;;
40787;SDS011;26497;52.494;7.546;2023-08-08T05:51:47;77.40;;;72.55;;
40787;SDS011;26497;52.494;7.546;2023-08-08T05:54:14;75.30;;;70.00;;
40787;SDS011;26497;52.494;7.546;2023-08-08T05:56:41;78.63;;;73.13;;
40787;SDS011;26497;52.494;7.546;2023-08-08T05:59:09;80.07;;;74.68;;
40787;SDS011;26497;52.494;7.546;2023-08-08T06:01:36;80.45;;;75.45;;
40787;SDS011;26497;52.494;7.546;2023-08-08T06:04:03;82.75;;;77.60;;
40787;SDS011;26497;52.494;7.546;2023-08-08T06:06:30;83.80;;;78.63;;
40787;SDS011;26497;52.494;7.546;2023-08-08T06:08:57;87.20;;;82.15;;
40787;SDS011;26497;52.494;7.546;2023-08-08T06:11:24;88.47;;;83.57;;
40787;SDS011;26497;52.494;7.546;2023-08-08T06:13:51;96.18;;;89.93;;
40787;SDS011;26497;52.494;7.546;2023-08-08T06:16:20;100.20;;;94.35;;
40787;SDS011;26497;52.494;7.546;2023-08-08T06:18:47;105.35;;;99.20;;
40787;SDS011;26497;52.494;7.546;2023-08-08T06:21:15;105.55;;;99.65;;
40787;SDS011;26497;52.494;7.546;2023-08-08T06:23:41;106.43;;;99.78;;
40787;SDS011;26497;52.494;7.546;2023-08-08T06:26:08;104.45;;;98.28;;
40787;SDS011;26497;52.494;7.546;2023-08-08T06:28:36;101.20;;;95.70;;
40787;SDS011;26497;52.494;7.546;2023-08-08T06:31:03;101.13;;;95.43;;
40787;SDS011;26497;52.494;7.546;2023-08-08T06:33:31;94.80;;;89.55;;
40787;SDS011;26497;52.494;7.546;2023-08-08T06:35:58;105.45;;;99.18;;
40787;SDS011;26497;52.494;7.546;2023-08-08T06:38:25;92.50;;;86.47;;
40787;SDS011;26497;52.494;7.546;2023-08-08T06:40:53;86.72;;;81.25;;
40787;SDS011;26497;52.494;7.546;2023-08-08T06:43:21;68.63;;;64.53;;
40787;SDS011;26497;52.494;7.546;2023-08-08T06:45:48;60.83;;;56.83;;
40787;SDS011;26497;52.494;7.546;2023-08-08T06:48:15;45.03;;;42.53;;
40787;SDS011;26497;52.494;7.546;2023-08-08T06:50:43;47.22;;;44.22;;
40787;SDS011;26497;52.494;7.546;2023-08-08T06:53:10;44.45;;;41.58;;
40787;SDS011;26497;52.494;7.546;2023-08-08T06:55:37;43.03;;;40.28;;
40787;SDS011;26497;52.494;7.546;2023-08-08T06:58:04;44.35;;;41.75;;
40787;SDS011;26497;52.494;7.546;2023-08-08T07:00:31;43.53;;;40.72;;
40787;SDS011;26497;52.494;7.546;2023-08-08T07:02:58;43.70;;;41.17;;
40787;SDS011;26497;52.494;7.546;2023-08-08T07:05:25;43.15;;;40.25;;
40787;SDS011;26497;52.494;7.546;2023-08-08T07:07:54;43.38;;;40.67;;
40787;SDS011;26497;52.494;7.546;2023-08-08T07:10:21;42.05;;;39.00;;
40787;SDS011;26497;52.494;7.546;2023-08-08T07:12:48;43.35;;;40.58;;
40787;SDS011;26497;52.494;7.546;2023-08-08T07:15:15;43.65;;;40.95;;
40787;SDS011;26497;52.494;7.546;2023-08-08T07:17:42;43.00;;;40.25;;
40787;SDS011;26497;52.494;7.546;2023-08-08T07:20:09;43.47;;;40.55;;
40787;SDS011;26497;52.494;7.546;2023-08-08T07:22:38;41.65;;;39.13;;
40787;SDS011;26497;52.494;7.546;2023-08-08T07:25:07;38.63;;;36.10;;
40787;SDS011;26497;52.494;7.546;2023-08-08T07:27:36;41.13;;;38.25;;
40787;SDS011;26497;52.494;7.546;2023-08-08T07:30:04;42.25;;;39.80;;
40787;SDS011;26497;52.494;7.546;2023-08-08T07:32:33;40.30;;;37.85;;
40787;SDS011;26497;52.494;7.546;2023-08-08T07:35:00;41.17;;;38.78;;
40787;SDS011;26497;52.494;7.546;2023-08-08T07:37:30;51.88;;;49.05;;
40787;SDS011;26497;52.494;7.546;2023-08-08T07:39:57;38.22;;;35.72;;
40787;SDS011;26497;52.494;7.546;2023-08-08T07:42:26;34.17;;;32.25;;
40787;SDS011;26497;52.494;7.546;2023-08-08T07:44:53;32.80;;;30.60;;
40787;SDS011;26497;52.494;7.546;2023-08-08T07:47:20;33.15;;;31.05;;
40787;SDS011;26497;52.494;7.546;2023-08-08T07:49:47;28.05;;;26.27;;
40787;SDS011;26497;52.494;7.546;2023-08-08T07:52:14;28.88;;;27.02;;
40787;SDS011;26497;52.494;7.546;2023-08-08T07:54:40;32.75;;;30.85;;
40787;SDS011;26497;52.494;7.546;2023-08-08T07:57:07;33.83;;;31.70;;
40787;SDS011;26497;52.494;7.546;2023-08-08T07:59:37;29.17;;;27.65;;
40787;SDS011;26497;52.494;7.546;2023-08-08T08:02:04;28.45;;;26.73;;
40787;SDS011;26497;52.494;7.546;2023-08-08T08:04:32;26.20;;;24.65;;
40787;SDS011;26497;52.494;7.546;2023-08-08T08:07:00;30.45;;;28.10;;
40787;SDS011;26497;52.494;7.546;2023-08-08T08:09:27;25.52;;;24.08;;
40787;SDS011;26497;52.494;7.546;2023-08-08T08:11:54;32.13;;;30.17;;
40787;SDS011;26497;52.494;7.546;2023-08-08T08:14:21;27.05;;;24.98;;
40787;SDS011;26497;52.494;7.546;2023-08-08T08:16:50;27.55;;;25.83;;
40787;SDS011;26497;52.494;7.546;2023-08-08T08:19:17;30.08;;;28.48;;
40787;SDS011;26497;52.494;7.546;2023-08-08T08:21:46;28.33;;;26.42;;
40787;SDS011;26497;52.494;7.546;2023-08-08T08:24:13;32.33;;;30.67;;
40787;SDS011;26497;52.494;7.546;2023-08-08T08:26:40;29.60;;;27.77;;
40787;SDS011;26497;52.494;7.546;2023-08-08T08:29:07;30.85;;;29.00;;
40787;SDS011;26497;52.494;7.546;2023-08-08T08:31:34;40.33;;;38.28;;
40787;SDS011;26497;52.494;7.546;2023-08-08T08:34:03;31.98;;;30.17;;
40787;SDS011;26497;52.494;7.546;2023-08-08T08:36:30;43.80;;;41.58;;
40787;SDS011;26497;52.494;7.546;2023-08-08T08:38:57;41.05;;;38.78;;
40787;SDS011;26497;52.494;7.546;2023-08-08T08:41:25;36.33;;;34.42;;
40787;SDS011;26497;52.494;7.546;2023-08-08T08:43:54;1999.90;;;999.90;;
40787;SDS011;26497;52.494;7.546;2023-08-08T08:46:21;1999.90;;;999.90;;
40787;SDS011;26497;52.494;7.546;2023-08-08T08:48:51;39.97;;;37.47;;
40787;SDS011;26497;52.494;7.546;2023-08-08T08:51:22;50.78;;;47.90;;
40787;SDS011;26497;52.494;7.546;2023-08-08T08:53:49;44.17;;;41.90;;
40787;SDS011;26497;52.494;7.546;2023-08-08T08:56:16;1017.53;;;516.58;;
40787;SDS011;26497;52.494;7.546;2023-08-08T08:58:44;1999.90;;;999.90;;
40787;SDS011;26497;52.494;7.546;2023-08-08T09:01:11;1999.90;;;999.90;;
40787;SDS011;26497;52.494;7.546;2023-08-08T09:03:39;32.17;;;30.17;;
40787;SDS011;26497;52.494;7.546;2023-08-08T09:06:07;1999.90;;;999.90;;
40787;SDS011;26497;52.494;7.546;2023-08-08T09:08:36;1999.90;;;999.90;;
40787;SDS011;26497;52.494;7.546;2023-08-08T09:11:03;1999.90;;;999.90;;
40787;SDS011;26497;52.494;7.546;2023-08-08T09:13:33;1999.90;;;999.90;;
40787;SDS011;26497;52.494;7.546;2023-08-08T09:16:04;1999.90;;;999.90;;
40787;SDS011;26497;52.494;7.546;2023-08-08T09:18:32;535.63;;;283.52;;
40787;SDS011;26497;52.494;7.546;2023-08-08T09:20:59;41.42;;;38.95;;
40787;SDS011;26497;52.494;7.546;2023-08-08T09:23:26;50.13;;;47.10;;
40787;SDS011;26497;52.494;7.546;2023-08-08T09:25:54;1999.90;;;999.90;;
40787;SDS011;26497;52.494;7.546;2023-08-08T09:28:22;1999.90;;;999.90;;
40787;SDS011;26497;52.494;7.546;2023-08-08T09:30:49;1999.90;;;999.90;;
40787;SDS011;26497;52.494;7.546;2023-08-08T09:33:17;1999.90;;;999.90;;
40787;SDS011;26497;52.494;7.546;2023-08-08T09:35:44;1999.90;;;999.90;;
40787;SDS011;26497;52.494;7.546;2023-08-08T09:38:11;1999.90;;;999.90;;
40787;SDS011;26497;52.494;7.546;2023-08-08T09:40:38;1999.90;;;999.90;;
40787;SDS011;26497;52.494;7.546;2023-08-08T09:43:07;1999.90;;;999.90;;
40787;SDS011;26497;52.494;7.546;2023-08-08T09:45:35;1999.90;;;999.90;;
40787;SDS011;26497;52.494;7.546;2023-08-08T09:48:03;1999.90;;;999.90;;
40787;SDS011;26497;52.494;7.546;2023-08-08T09:50:32;1999.90;;;999.90;;
40787;SDS011;26497;52.494;7.546;2023-08-08T09:53:01;1999.90;;;999.90;;
40787;SDS011;26497;52.494;7.546;2023-08-08T09:55:29;1999.90;;;999.90;;
40787;SDS011;26497;52.494;7.546;2023-08-08T09:57:57;1999.90;;;999.90;;
40787;SDS011;26497;52.494;7.546;2023-08-08T10:00:26;1999.90;;;999.90;;
40787;SDS011;26497;52.494;7.546;2023-08-08T10:02:55;1999.90;;;999.90;;
40787;SDS011;26497;52.494;7.546;2023-08-08T10:05:25;1999.90;;;999.90;;
40787;SDS011;26497;52.494;7.546;2023-08-08T10:07:53;1999.90;;;999.90;;
40787;SDS011;26497;52.494;7.546;2023-08-08T10:10:21;50.33;;;47.55;;
40787;SDS011;26497;52.494;7.546;2023-08-08T10:12:48;1999.90;;;999.90;;
40787;SDS011;26497;52.494;7.546;2023-08-08T10:15:15;51.53;;;48.80;;
40787;SDS011;26497;52.494;7.546;2023-08-08T10:17:44;34.17;;;32.50;;
40787;SDS011;26497;52.494;7.546;2023-08-08T10:20:12;1999.90;;;999.90;;
40787;SDS011;26497;52.494;7.546;2023-08-08T10:22:42;44.17;;;41.27;;
40787;SDS011;26497;52.494;7.546;2023-08-08T10:25:18;50.13;;;47.67;;
40787;SDS011;26497;52.494;7.546;2023-08-08T10:27:46;33.28;;;31.38;;
40787;SDS011;26497;52.494;7.546;2023-08-08T10:30:13;33.78;;;31.98;;
40787;SDS011;26497;52.494;7.546;2023-08-08T10:32:41;33.53;;;31.77;;
40787;SDS011;26497;52.494;7.546;2023-08-08T10:35:11;39.50;;;37.20;;
40787;SDS011;26497;52.494;7.546;2023-08-08T10:37:39;38.75;;;36.22;;
40787;SDS011;26497;52.494;7.546;2023-08-08T10:40:07;42.97;;;40.70;;
40787;SDS011;26497;52.494;7.546;2023-08-08T10:42:42;44.53;;;42.30;;
40787;SDS011;26497;52.494;7.546;2023-08-08T10:45:12;1999.90;;;999.90;;
40787;SDS011;26497;52.494;7.546;2023-08-08T10:47:41;533.15;;;281.33;;
40787;SDS011;26497;52.494;7.546;2023-08-08T10:50:11;1999.90;;;999.90;;
40787;SDS011;26497;52.494;7.546;2023-08-08T10:52:50;48.97;;;46.35;;
40787;SDS011;26497;52.494;7.546;2023-08-08T10:55:19;41.58;;;39.22;;
40787;SDS011;26497;52.494;7.546;2023-08-08T10:57:54;41.65;;;39.25;;
40787;SDS011;26497;52.494;7.546;2023-08-08T11:00:24;37.28;;;35.05;;
40787;SDS011;26497;52.494;7.546;2023-08-08T11:05:24;38.22;;;36.33;;
40787;SDS011;26497;52.494;7.546;2023-08-08T11:07:53;47.05;;;43.65;;
40787;SDS011;26497;52.494;7.546;2023-08-08T11:10:21;57.83;;;54.75;;
40787;SDS011;26497;52.494;7.546;2023-08-08T11:12:58;49.92;;;47.08;;
40787;SDS011;26497;52.494;7.546;2023-08-08T11:15:27;39.10;;;36.88;;
40787;SDS011;26497;52.494;7.546;2023-08-08T11:17:54;38.13;;;36.03;;
40787;SDS011;26497;52.494;7.546;2023-08-08T11:20:23;39.13;;;37.17;;
40787;SDS011;26497;52.494;7.546;2023-08-08T11:22:51;40.28;;;38.13;;
40787;SDS011;26497;52.494;7.546;2023-08-08T11:25:19;38.03;;;36.10;;
40787;SDS011;26497;52.494;7.546;2023-08-08T11:27:50;27.60;;;26.25;;
40787;SDS011;26497;52.494;7.546;2023-08-08T11:30:19;25.20;;;23.85;;
40787;SDS011;26497;52.494;7.546;2023-08-08T11:32:47;32.60;;;30.75;;
40787;SDS011;26497;52.494;7.546;2023-08-08T11:35:17;28.60;;;27.08;;
40787;SDS011;26497;52.494;7.546;2023-08-08T11:37:49;29.42;;;28.00;;
40787;SDS011;26497;52.494;7.546;2023-08-08T11:40:17;29.17;;;27.77;;
40787;SDS011;26497;52.494;7.546;2023-08-08T11:42:46;28.08;;;26.73;;
40787;SDS011;26497;52.494;7.546;2023-08-08T11:45:15;28.27;;;26.88;;
40787;SDS011;26497;52.494;7.546;2023-08-08T11:47:43;30.40;;;28.58;;
40787;SDS011;26497;52.494;7.546;2023-08-08T11:50:10;31.10;;;29.40;;
40787;SDS011;26497;52.494;7.546;2023-08-08T11:52:40;39.03;;;36.30;;
40787;SDS011;26497;52.494;7.546;2023-08-08T11:55:09;72.57;;;68.13;;
40787;SDS011;26497;52.494;7.546;2023-08-08T11:57:37;43.42;;;41.13;;
40787;SDS011;26497;52.494;7.546;2023-08-08T12:00:05;38.05;;;36.15;;
40787;SDS011;26497;52.494;7.546;2023-08-08T12:02:37;47.47;;;44.90;;
40787;SDS011;26497;52.494;7.546;2023-08-08T12:05:05;56.72;;;53.83;;
40787;SDS011;26497;52.494;7.546;2023-08-08T12:07:34;71.55;;;67.75;;
40787;SDS011;26497;52.494;7.546;2023-08-08T12:10:04;53.00;;;50.28;;
40787;SDS011;26497;52.494;7.546;2023-08-08T12:12:33;38.55;;;36.47;;
40787;SDS011;26497;52.494;7.546;2023-08-08T12:15:03;38.28;;;36.38;;
40787;SDS011;26497;52.494;7.546;2023-08-08T12:17:31;31.63;;;29.85;;
40787;SDS011;26497;52.494;7.546;2023-08-08T12:19:59;32.20;;;30.58;;
40787;SDS011;26497;52.494;7.546;2023-08-08T12:22:26;28.35;;;25.52;;
40787;SDS011;26497;52.494;7.546;2023-08-08T12:24:53;31.85;;;30.17;;
40787;SDS011;26497;52.494;7.546;2023-08-08T12:27:22;35.78;;;33.28;;
40787;SDS011;26497;52.494;7.546;2023-08-08T12:29:49;40.10;;;37.90;;
40787;SDS011;26497;52.494;7.546;2023-08-08T12:32:17;33.25;;;31.52;;
40787;SDS011;26497;52.494;7.546;2023-08-08T12:34:45;33.25;;;31.52;;
40787;SDS011;26497;52.494;7.546;2023-08-08T12:37:12;27.70;;;26.40;;
40787;SDS011;26497;52.494;7.546;2023-08-08T12:39:39;31.38;;;29.88;;
40787;SDS011;26497;52.494;7.546;2023-08-08T12:42:06;42.90;;;40.63;;
40787;SDS011;26497;52.494;7.546;2023-08-08T12:44:34;57.22;;;54.33;;
40787;SDS011;26497;52.494;7.546;2023-08-08T12:47:01;70.28;;;66.50;;
40787;SDS011;26497;52.494;7.546;2023-08-08T12:49:29;43.50;;;41.30;;
40787;SDS011;26497;52.494;7.546;2023-08-08T12:51:56;39.10;;;36.95;;
40787;SDS011;26497;52.494;7.546;2023-08-08T12:54:23;48.45;;;45.97;;
40787;SDS011;26497;52.494;7.546;2023-08-08T12:56:51;59.80;;;56.60;;
40787;SDS011;26497;52.494;7.546;2023-08-08T12:59:18;71.50;;;67.68;;
40787;SDS011;26497;52.494;7.546;2023-08-08T13:01:46;72.57;;;68.68;;
40787;SDS011;26497;52.494;7.546;2023-08-08T13:04:13;79.93;;;75.82;;
40787;SDS011;26497;52.494;7.546;2023-08-08T13:06:40;81.13;;;76.45;;
40787;SDS011;26497;52.494;7.546;2023-08-08T13:09:07;93.68;;;88.72;;
40787;SDS011;26497;52.494;7.546;2023-08-08T13:11:35;103.18;;;97.20;;
40787;SDS011;26497;52.494;7.546;2023-08-08T13:14:02;82.50;;;78.20;;
40787;SDS011;26497;52.494;7.546;2023-08-08T13:16:29;81.00;;;76.43;;
40787;SDS011;26497;52.494;7.546;2023-08-08T13:18:58;56.25;;;53.30;;
40787;SDS011;26497;52.494;7.546;2023-08-08T13:21:25;46.22;;;43.88;;
40787;SDS011;26497;52.494;7.546;2023-08-08T13:23:53;47.90;;;45.05;;
40787;SDS011;26497;52.494;7.546;2023-08-08T13:26:20;57.22;;;54.33;;
40787;SDS011;26497;52.494;7.546;2023-08-08T13:28:47;46.42;;;44.03;;
40787;SDS011;26497;52.494;7.546;2023-08-08T13:31:14;45.88;;;43.28;;
40787;SDS011;26497;52.494;7.546;2023-08-08T13:33:41;43.92;;;41.63;;
40787;SDS011;26497;52.494;7.546;2023-08-08T13:36:10;45.47;;;42.88;;
40787;SDS011;26497;52.494;7.546;2023-08-08T13:38:37;51.58;;;48.88;;
40787;SDS011;26497;52.494;7.546;2023-08-08T13:41:04;56.40;;;53.38;;
40787;SDS011;26497;52.494;7.546;2023-08-08T13:43:31;63.50;;;59.83;;
40787;SDS011;26497;52.494;7.546;2023-08-08T13:45:58;62.55;;;59.10;;
40787;SDS011;26497;52.494;7.546;2023-08-08T13:48:27;62.30;;;58.60;;
40787;SDS011;26497;52.494;7.546;2023-08-08T13:50:54;62.35;;;58.67;;
40787;SDS011;26497;52.494;7.546;2023-08-08T13:53:23;67.15;;;63.10;;
40787;SDS011;26497;52.494;7.546;2023-08-08T13:55:50;67.25;;;63.80;;
40787;SDS011;26497;52.494;7.546;2023-08-08T13:58:17;71.68;;;67.78;;
40787;SDS011;26497;52.494;7.546;2023-08-08T14:00:47;74.63;;;70.53;;
40787;SDS011;26497;52.494;7.546;2023-08-08T14:03:14;88.35;;;83.55;;
40787;SDS011;26497;52.494;7.546;2023-08-08T14:05:41;57.78;;;54.65;;
40787;SDS011;26497;52.494;7.546;2023-08-08T14:08:08;51.55;;;48.47;;
40787;SDS011;26497;52.494;7.546;2023-08-08T14:10:36;44.28;;;42.05;;
40787;SDS011;26497;52.494;7.546;2023-08-08T14:13:04;44.08;;;41.78;;
40787;SDS011;26497;52.494;7.546;2023-08-08T14:15:31;43.85;;;41.30;;
40787;SDS011;26497;52.494;7.546;2023-08-08T14:17:58;32.55;;;31.05;;
40787;SDS011;26497;52.494;7.546;2023-08-08T14:20:25;33.10;;;31.02;;
40787;SDS011;26497;52.494;7.546;2023-08-08T14:22:52;44.28;;;41.88;;
40787;SDS011;26497;52.494;7.546;2023-08-08T14:25:19;44.85;;;42.25;;